sensor_id;sensor_type;location;lat;lon;timestamp;P1;durP1;ratioP1;P2;durP2;ratioP2
12554;SDS011;6343;50.868;4.700;2022-12-29T00:01:36;4.27;;;1.40;;
12554;SDS011;6343;50.868;4.700;2022-12-29T00:04:03;0.97;;;0.87;;
12554;SDS011;6343;50.868;4.700;2022-12-29T00:06:29;0.90;;;0.90;;
12554;SDS011;6343;50.868;4.700;2022-12-29T00:08:55;2.57;;;1.07;;
12554;SDS011;6343;50.868;4.700;2022-12-29T00:11:23;2.20;;;1.50;;
12554;SDS011;6343;50.868;4.700;2022-12-29T00:13:50;1.07;;;0.83;;
12554;SDS011;6343;50.868;4.700;2022-12-29T00:16:35;1.10;;;0.90;;
12554;SDS011;6343;50.868;4.700;2022-12-29T00:19:02;1.90;;;0.93;;
12554;SDS011;6343;50.868;4.700;2022-12-29T00:21:28;3.37;;;1.30;;
12554;SDS011;6343;50.868;4.700;2022-12-29T00:24:14;1.30;;;1.00;;
12554;SDS011;6343;50.868;4.700;2022-12-29T00:27:11;2.40;;;1.30;;
12554;SDS011;6343;50.868;4.700;2022-12-29T00:29:55;2.20;;;0.90;;
12554;SDS011;6343;50.868;4.700;2022-12-29T00:32:40;2.30;;;0.93;;
12554;SDS011;6343;50.868;4.700;2022-12-29T00:35:27;2.17;;;1.23;;
12554;SDS011;6343;50.868;4.700;2022-12-29T00:37:54;2.07;;;1.20;;
12554;SDS011;6343;50.868;4.700;2022-12-29T00:40:40;1.63;;;0.63;;
12554;SDS011;6343;50.868;4.700;2022-12-29T00:43:25;3.93;;;0.97;;
12554;SDS011;6343;50.868;4.700;2022-12-29T00:46:09;1.03;;;0.90;;
12554;SDS011;6343;50.868;4.700;2022-12-29T00:48:35;0.90;;;0.60;;
12554;SDS011;6343;50.868;4.700;2022-12-29T00:51:20;1.40;;;1.00;;
12554;SDS011;6343;50.868;4.700;2022-12-29T00:53:46;2.90;;;1.03;;
12554;SDS011;6343;50.868;4.700;2022-12-29T00:56:12;1.13;;;0.90;;
12554;SDS011;6343;50.868;4.700;2022-12-29T00:58:38;1.83;;;0.80;;
12554;SDS011;6343;50.868;4.700;2022-12-29T01:01:06;1.40;;;0.70;;
12554;SDS011;6343;50.868;4.700;2022-12-29T01:03:32;1.47;;;0.70;;
12554;SDS011;6343;50.868;4.700;2022-12-29T01:06:08;2.50;;;0.80;;
12554;SDS011;6343;50.868;4.700;2022-12-29T01:08:35;3.50;;;0.83;;
12554;SDS011;6343;50.868;4.700;2022-12-29T01:11:11;2.40;;;0.70;;
12554;SDS011;6343;50.868;4.700;2022-12-29T01:13:38;1.97;;;0.80;;
12554;SDS011;6343;50.868;4.700;2022-12-29T01:16:06;1.80;;;0.97;;
12554;SDS011;6343;50.868;4.700;2022-12-29T01:18:33;5.37;;;1.27;;
12554;SDS011;6343;50.868;4.700;2022-12-29T01:21:00;3.27;;;1.00;;
12554;SDS011;6343;50.868;4.700;2022-12-29T01:23:26;1.80;;;0.90;;
12554;SDS011;6343;50.868;4.700;2022-12-29T01:25:53;2.37;;;0.83;;
12554;SDS011;6343;50.868;4.700;2022-12-29T01:28:19;3.80;;;1.23;;
12554;SDS011;6343;50.868;4.700;2022-12-29T01:30:45;1.60;;;0.90;;
12554;SDS011;6343;50.868;4.700;2022-12-29T01:33:11;3.00;;;1.00;;
12554;SDS011;6343;50.868;4.700;2022-12-29T01:35:37;2.27;;;1.00;;
12554;SDS011;6343;50.868;4.700;2022-12-29T01:38:03;1.70;;;0.83;;
12554;SDS011;6343;50.868;4.700;2022-12-29T01:40:29;2.43;;;1.13;;
12554;SDS011;6343;50.868;4.700;2022-12-29T01:42:55;2.87;;;1.20;;
12554;SDS011;6343;50.868;4.700;2022-12-29T01:45:21;2.97;;;1.13;;
12554;SDS011;6343;50.868;4.700;2022-12-29T01:47:49;3.23;;;1.00;;
12554;SDS011;6343;50.868;4.700;2022-12-29T01:50:28;3.13;;;0.90;;
12554;SDS011;6343;50.868;4.700;2022-12-29T01:52:59;1.30;;;1.00;;
12554;SDS011;6343;50.868;4.700;2022-12-29T01:55:26;3.27;;;1.00;;
12554;SDS011;6343;50.868;4.700;2022-12-29T01:57:53;2.73;;;0.90;;
12554;SDS011;6343;50.868;4.700;2022-12-29T02:00:20;3.87;;;1.17;;
12554;SDS011;6343;50.868;4.700;2022-12-29T02:02:50;2.50;;;1.10;;
12554;SDS011;6343;50.868;4.700;2022-12-29T02:05:21;2.40;;;1.00;;
12554;SDS011;6343;50.868;4.700;2022-12-29T02:07:49;2.13;;;1.10;;
12554;SDS011;6343;50.868;4.700;2022-12-29T02:10:16;2.73;;;1.47;;
12554;SDS011;6343;50.868;4.700;2022-12-29T02:12:42;5.70;;;1.20;;
12554;SDS011;6343;50.868;4.700;2022-12-29T02:15:08;5.00;;;1.50;;
12554;SDS011;6343;50.868;4.700;2022-12-29T02:31:49;1.87;;;0.80;;
12554;SDS011;6343;50.868;4.700;2022-12-29T02:33:59;2.00;;;0.77;;
12554;SDS011;6343;50.868;4.700;2022-12-29T02:43:56;2.07;;;0.90;;
12554;SDS011;6343;50.868;4.700;2022-12-29T02:46:31;1.47;;;0.90;;
12554;SDS011;6343;50.868;4.700;2022-12-29T02:49:10;2.50;;;0.90;;
12554;SDS011;6343;50.868;4.700;2022-12-29T02:54:05;1.73;;;0.70;;
12554;SDS011;6343;50.868;4.700;2022-12-29T02:56:49;2.57;;;0.90;;
12554;SDS011;6343;50.868;4.700;2022-12-29T02:59:16;1.47;;;0.70;;
12554;SDS011;6343;50.868;4.700;2022-12-29T03:01:47;4.20;;;0.90;;
12554;SDS011;6343;50.868;4.700;2022-12-29T03:07:09;2.60;;;0.80;;
12554;SDS011;6343;50.868;4.700;2022-12-29T03:12:39;1.10;;;0.60;;
12554;SDS011;6343;50.868;4.700;2022-12-29T03:15:29;2.93;;;0.73;;
12554;SDS011;6343;50.868;4.700;2022-12-29T03:24:17;2.03;;;0.77;;
12554;SDS011;6343;50.868;4.700;2022-12-29T03:26:44;9.73;;;0.73;;
12554;SDS011;6343;50.868;4.700;2022-12-29T03:29:11;2.80;;;0.90;;
12554;SDS011;6343;50.868;4.700;2022-12-29T03:31:38;2.90;;;0.87;;
12554;SDS011;6343;50.868;4.700;2022-12-29T03:34:04;1.07;;;0.53;;
12554;SDS011;6343;50.868;4.700;2022-12-29T03:36:35;3.43;;;0.60;;
12554;SDS011;6343;50.868;4.700;2022-12-29T03:39:03;1.73;;;0.60;;
12554;SDS011;6343;50.868;4.700;2022-12-29T03:41:32;0.73;;;0.50;;
12554;SDS011;6343;50.868;4.700;2022-12-29T03:43:58;1.80;;;0.60;;
12554;SDS011;6343;50.868;4.700;2022-12-29T03:46:25;2.20;;;0.60;;
12554;SDS011;6343;50.868;4.700;2022-12-29T03:48:51;2.77;;;1.00;;
12554;SDS011;6343;50.868;4.700;2022-12-29T03:51:17;2.10;;;0.80;;
12554;SDS011;6343;50.868;4.700;2022-12-29T03:53:43;1.67;;;0.80;;
12554;SDS011;6343;50.868;4.700;2022-12-29T03:56:09;2.03;;;0.77;;
12554;SDS011;6343;50.868;4.700;2022-12-29T03:58:35;1.70;;;0.80;;
12554;SDS011;6343;50.868;4.700;2022-12-29T04:01:01;2.60;;;1.07;;
12554;SDS011;6343;50.868;4.700;2022-12-29T04:03:27;2.97;;;0.73;;
12554;SDS011;6343;50.868;4.700;2022-12-29T04:05:53;3.17;;;0.70;;
12554;SDS011;6343;50.868;4.700;2022-12-29T04:08:19;3.50;;;0.90;;
12554;SDS011;6343;50.868;4.700;2022-12-29T04:10:47;2.70;;;0.70;;
12554;SDS011;6343;50.868;4.700;2022-12-29T04:13:13;4.40;;;1.00;;
12554;SDS011;6343;50.868;4.700;2022-12-29T04:15:39;3.93;;;0.90;;
12554;SDS011;6343;50.868;4.700;2022-12-29T04:18:07;3.90;;;0.87;;
12554;SDS011;6343;50.868;4.700;2022-12-29T04:20:33;4.43;;;1.10;;
12554;SDS011;6343;50.868;4.700;2022-12-29T04:23:18;1.97;;;0.80;;
12554;SDS011;6343;50.868;4.700;2022-12-29T04:25:47;2.03;;;0.70;;
12554;SDS011;6343;50.868;4.700;2022-12-29T04:28:14;0.90;;;0.60;;
12554;SDS011;6343;50.868;4.700;2022-12-29T04:30:40;2.10;;;0.80;;
12554;SDS011;6343;50.868;4.700;2022-12-29T04:33:06;2.43;;;0.80;;
12554;SDS011;6343;50.868;4.700;2022-12-29T04:35:32;4.63;;;1.00;;
12554;SDS011;6343;50.868;4.700;2022-12-29T04:37:58;12.07;;;1.33;;
12554;SDS011;6343;50.868;4.700;2022-12-29T04:40:24;5.27;;;1.00;;
12554;SDS011;6343;50.868;4.700;2022-12-29T04:42:50;3.90;;;0.80;;
12554;SDS011;6343;50.868;4.700;2022-12-29T04:45:16;2.77;;;0.97;;
12554;SDS011;6343;50.868;4.700;2022-12-29T04:47:43;2.23;;;0.87;;
12554;SDS011;6343;50.868;4.700;2022-12-29T04:50:09;2.90;;;0.83;;
12554;SDS011;6343;50.868;4.700;2022-12-29T04:52:35;0.90;;;0.60;;
12554;SDS011;6343;50.868;4.700;2022-12-29T04:55:01;4.73;;;1.10;;
12554;SDS011;6343;50.868;4.700;2022-12-29T04:57:27;1.87;;;0.70;;
12554;SDS011;6343;50.868;4.700;2022-12-29T04:59:54;2.47;;;0.90;;
12554;SDS011;6343;50.868;4.700;2022-12-29T05:02:20;3.60;;;1.00;;
12554;SDS011;6343;50.868;4.700;2022-12-29T05:04:46;2.00;;;0.80;;
12554;SDS011;6343;50.868;4.700;2022-12-29T05:07:12;4.30;;;1.17;;
12554;SDS011;6343;50.868;4.700;2022-12-29T05:09:38;5.40;;;1.00;;
12554;SDS011;6343;50.868;4.700;2022-12-29T05:12:05;2.83;;;0.80;;
12554;SDS011;6343;50.868;4.700;2022-12-29T05:14:31;5.60;;;1.13;;
12554;SDS011;6343;50.868;4.700;2022-12-29T05:16:57;3.97;;;1.20;;
12554;SDS011;6343;50.868;4.700;2022-12-29T05:19:23;2.70;;;1.00;;
12554;SDS011;6343;50.868;4.700;2022-12-29T05:21:49;3.63;;;1.00;;
12554;SDS011;6343;50.868;4.700;2022-12-29T05:24:15;4.50;;;1.30;;
12554;SDS011;6343;50.868;4.700;2022-12-29T05:26:41;3.53;;;1.03;;
12554;SDS011;6343;50.868;4.700;2022-12-29T05:29:07;4.43;;;1.17;;
12554;SDS011;6343;50.868;4.700;2022-12-29T05:31:34;4.87;;;1.17;;
12554;SDS011;6343;50.868;4.700;2022-12-29T05:34:00;3.97;;;1.00;;
12554;SDS011;6343;50.868;4.700;2022-12-29T05:36:26;4.77;;;1.20;;
12554;SDS011;6343;50.868;4.700;2022-12-29T05:38:53;4.07;;;0.90;;
12554;SDS011;6343;50.868;4.700;2022-12-29T05:41:19;6.30;;;1.23;;
12554;SDS011;6343;50.868;4.700;2022-12-29T05:43:45;2.10;;;1.17;;
12554;SDS011;6343;50.868;4.700;2022-12-29T05:46:11;2.57;;;0.90;;
12554;SDS011;6343;50.868;4.700;2022-12-29T05:48:37;7.57;;;1.00;;
12554;SDS011;6343;50.868;4.700;2022-12-29T05:51:03;4.27;;;0.90;;
12554;SDS011;6343;50.868;4.700;2022-12-29T05:53:30;5.87;;;1.43;;
12554;SDS011;6343;50.868;4.700;2022-12-29T05:55:56;7.20;;;1.30;;
12554;SDS011;6343;50.868;4.700;2022-12-29T05:58:22;5.27;;;1.13;;
12554;SDS011;6343;50.868;4.700;2022-12-29T06:00:48;5.00;;;1.00;;
12554;SDS011;6343;50.868;4.700;2022-12-29T06:03:14;5.30;;;1.07;;
12554;SDS011;6343;50.868;4.700;2022-12-29T06:05:40;4.60;;;1.10;;
12554;SDS011;6343;50.868;4.700;2022-12-29T06:08:06;5.50;;;1.13;;
12554;SDS011;6343;50.868;4.700;2022-12-29T06:10:32;3.90;;;1.17;;
12554;SDS011;6343;50.868;4.700;2022-12-29T06:12:58;5.20;;;1.67;;
12554;SDS011;6343;50.868;4.700;2022-12-29T06:15:24;4.87;;;1.53;;
12554;SDS011;6343;50.868;4.700;2022-12-29T06:17:50;7.00;;;1.27;;
12554;SDS011;6343;50.868;4.700;2022-12-29T06:20:16;4.03;;;1.43;;
12554;SDS011;6343;50.868;4.700;2022-12-29T06:22:43;5.93;;;1.40;;
12554;SDS011;6343;50.868;4.700;2022-12-29T06:25:10;5.20;;;1.63;;
12554;SDS011;6343;50.868;4.700;2022-12-29T06:27:36;9.40;;;1.60;;
12554;SDS011;6343;50.868;4.700;2022-12-29T06:30:02;5.20;;;1.40;;
12554;SDS011;6343;50.868;4.700;2022-12-29T06:32:28;7.90;;;1.47;;
12554;SDS011;6343;50.868;4.700;2022-12-29T06:34:55;3.50;;;1.37;;
12554;SDS011;6343;50.868;4.700;2022-12-29T06:37:21;8.10;;;1.23;;
12554;SDS011;6343;50.868;4.700;2022-12-29T06:39:47;5.27;;;1.27;;
12554;SDS011;6343;50.868;4.700;2022-12-29T06:42:13;3.33;;;1.30;;
12554;SDS011;6343;50.868;4.700;2022-12-29T06:44:39;6.77;;;1.57;;
12554;SDS011;6343;50.868;4.700;2022-12-29T06:47:05;7.60;;;1.63;;
12554;SDS011;6343;50.868;4.700;2022-12-29T06:49:31;5.67;;;1.20;;
12554;SDS011;6343;50.868;4.700;2022-12-29T06:51:57;5.40;;;1.50;;
12554;SDS011;6343;50.868;4.700;2022-12-29T06:54:25;4.53;;;1.10;;
12554;SDS011;6343;50.868;4.700;2022-12-29T06:56:51;5.80;;;1.67;;
12554;SDS011;6343;50.868;4.700;2022-12-29T06:59:18;6.97;;;1.53;;
12554;SDS011;6343;50.868;4.700;2022-12-29T07:01:44;10.30;;;1.50;;
12554;SDS011;6343;50.868;4.700;2022-12-29T07:04:10;7.37;;;1.77;;
12554;SDS011;6343;50.868;4.700;2022-12-29T07:06:36;6.17;;;1.10;;
12554;SDS011;6343;50.868;4.700;2022-12-29T07:09:02;5.90;;;1.53;;
12554;SDS011;6343;50.868;4.700;2022-12-29T07:11:29;9.73;;;1.37;;
12554;SDS011;6343;50.868;4.700;2022-12-29T07:13:55;4.97;;;1.90;;
12554;SDS011;6343;50.868;4.700;2022-12-29T07:16:21;4.80;;;1.60;;
12554;SDS011;6343;50.868;4.700;2022-12-29T07:18:47;6.33;;;1.87;;
12554;SDS011;6343;50.868;4.700;2022-12-29T07:21:13;9.97;;;1.73;;
12554;SDS011;6343;50.868;4.700;2022-12-29T07:23:40;7.33;;;1.50;;
12554;SDS011;6343;50.868;4.700;2022-12-29T07:26:06;10.77;;;1.40;;
12554;SDS011;6343;50.868;4.700;2022-12-29T07:28:34;6.20;;;1.60;;
12554;SDS011;6343;50.868;4.700;2022-12-29T07:31:00;10.27;;;1.80;;
12554;SDS011;6343;50.868;4.700;2022-12-29T07:33:29;5.37;;;1.30;;
12554;SDS011;6343;50.868;4.700;2022-12-29T07:35:55;6.87;;;1.60;;
12554;SDS011;6343;50.868;4.700;2022-12-29T07:38:21;5.93;;;1.60;;
12554;SDS011;6343;50.868;4.700;2022-12-29T07:40:47;10.73;;;2.07;;
12554;SDS011;6343;50.868;4.700;2022-12-29T07:43:14;4.73;;;1.47;;
12554;SDS011;6343;50.868;4.700;2022-12-29T07:45:40;5.63;;;1.37;;
12554;SDS011;6343;50.868;4.700;2022-12-29T07:48:06;5.33;;;1.50;;
12554;SDS011;6343;50.868;4.700;2022-12-29T07:50:33;6.57;;;1.50;;
12554;SDS011;6343;50.868;4.700;2022-12-29T07:52:59;5.27;;;1.70;;
12554;SDS011;6343;50.868;4.700;2022-12-29T07:55:25;6.00;;;1.27;;
12554;SDS011;6343;50.868;4.700;2022-12-29T07:57:55;4.17;;;1.40;;
12554;SDS011;6343;50.868;4.700;2022-12-29T08:00:21;6.03;;;1.87;;
12554;SDS011;6343;50.868;4.700;2022-12-29T08:02:47;6.87;;;2.20;;
12554;SDS011;6343;50.868;4.700;2022-12-29T08:05:13;11.00;;;2.00;;
12554;SDS011;6343;50.868;4.700;2022-12-29T08:07:42;5.50;;;1.57;;
12554;SDS011;6343;50.868;4.700;2022-12-29T08:10:08;7.10;;;1.50;;
12554;SDS011;6343;50.868;4.700;2022-12-29T08:12:34;9.77;;;2.20;;
12554;SDS011;6343;50.868;4.700;2022-12-29T08:15:00;9.80;;;1.70;;
12554;SDS011;6343;50.868;4.700;2022-12-29T08:17:26;5.43;;;1.70;;
12554;SDS011;6343;50.868;4.700;2022-12-29T08:19:52;7.50;;;1.57;;
12554;SDS011;6343;50.868;4.700;2022-12-29T08:22:18;5.70;;;1.43;;
12554;SDS011;6343;50.868;4.700;2022-12-29T08:24:44;7.67;;;1.70;;
12554;SDS011;6343;50.868;4.700;2022-12-29T08:27:11;4.87;;;1.17;;
12554;SDS011;6343;50.868;4.700;2022-12-29T08:29:37;10.33;;;1.80;;
12554;SDS011;6343;50.868;4.700;2022-12-29T08:32:03;6.63;;;1.57;;
12554;SDS011;6343;50.868;4.700;2022-12-29T08:34:30;9.37;;;2.50;;
12554;SDS011;6343;50.868;4.700;2022-12-29T08:38:14;6.60;;;1.93;;
12554;SDS011;6343;50.868;4.700;2022-12-29T08:40:40;8.70;;;2.27;;
12554;SDS011;6343;50.868;4.700;2022-12-29T08:43:06;11.50;;;1.67;;
12554;SDS011;6343;50.868;4.700;2022-12-29T08:45:33;7.37;;;1.50;;
12554;SDS011;6343;50.868;4.700;2022-12-29T08:47:59;5.43;;;1.57;;
12554;SDS011;6343;50.868;4.700;2022-12-29T08:50:25;6.00;;;1.63;;
12554;SDS011;6343;50.868;4.700;2022-12-29T08:52:51;7.87;;;1.30;;
12554;SDS011;6343;50.868;4.700;2022-12-29T08:55:17;8.13;;;1.83;;
12554;SDS011;6343;50.868;4.700;2022-12-29T08:57:43;6.30;;;1.63;;
12554;SDS011;6343;50.868;4.700;2022-12-29T09:00:10;5.87;;;2.07;;
12554;SDS011;6343;50.868;4.700;2022-12-29T09:02:36;8.87;;;2.13;;
12554;SDS011;6343;50.868;4.700;2022-12-29T09:05:02;7.93;;;1.90;;
12554;SDS011;6343;50.868;4.700;2022-12-29T09:07:29;4.77;;;1.50;;
12554;SDS011;6343;50.868;4.700;2022-12-29T09:09:55;11.03;;;2.23;;
12554;SDS011;6343;50.868;4.700;2022-12-29T09:12:21;6.47;;;1.57;;
12554;SDS011;6343;50.868;4.700;2022-12-29T09:14:47;9.73;;;1.63;;
12554;SDS011;6343;50.868;4.700;2022-12-29T09:17:13;7.80;;;1.83;;
12554;SDS011;6343;50.868;4.700;2022-12-29T09:19:58;3.63;;;1.30;;
12554;SDS011;6343;50.868;4.700;2022-12-29T09:22:24;5.67;;;1.57;;
12554;SDS011;6343;50.868;4.700;2022-12-29T09:24:50;6.83;;;1.70;;
12554;SDS011;6343;50.868;4.700;2022-12-29T09:27:16;6.13;;;1.50;;
12554;SDS011;6343;50.868;4.700;2022-12-29T09:29:42;7.77;;;2.30;;
12554;SDS011;6343;50.868;4.700;2022-12-29T09:32:08;5.20;;;1.67;;
12554;SDS011;6343;50.868;4.700;2022-12-29T09:34:34;7.07;;;1.37;;
12554;SDS011;6343;50.868;4.700;2022-12-29T09:37:00;5.33;;;1.53;;
12554;SDS011;6343;50.868;4.700;2022-12-29T09:39:26;9.57;;;2.10;;
12554;SDS011;6343;50.868;4.700;2022-12-29T09:41:58;8.90;;;2.00;;
12554;SDS011;6343;50.868;4.700;2022-12-29T09:47:13;15.80;;;2.30;;
12554;SDS011;6343;50.868;4.700;2022-12-29T09:49:42;5.57;;;1.70;;
12554;SDS011;6343;50.868;4.700;2022-12-29T09:52:15;7.67;;;1.70;;
12554;SDS011;6343;50.868;4.700;2022-12-29T09:57:18;8.10;;;1.70;;
12554;SDS011;6343;50.868;4.700;2022-12-29T09:59:46;10.43;;;2.23;;
12554;SDS011;6343;50.868;4.700;2022-12-29T10:02:23;12.37;;;2.20;;
12554;SDS011;6343;50.868;4.700;2022-12-29T10:04:53;10.90;;;2.43;;
12554;SDS011;6343;50.868;4.700;2022-12-29T10:15:00;7.10;;;2.30;;
12554;SDS011;6343;50.868;4.700;2022-12-29T10:25:12;6.20;;;1.70;;
12554;SDS011;6343;50.868;4.700;2022-12-29T10:27:40;7.67;;;2.40;;
12554;SDS011;6343;50.868;4.700;2022-12-29T10:30:10;4.83;;;1.87;;
12554;SDS011;6343;50.868;4.700;2022-12-29T10:32:56;13.80;;;2.27;;
12554;SDS011;6343;50.868;4.700;2022-12-29T10:35:24;5.83;;;2.13;;
12554;SDS011;6343;50.868;4.700;2022-12-29T10:42:50;7.63;;;2.07;;
12554;SDS011;6343;50.868;4.700;2022-12-29T10:45:18;8.10;;;2.40;;
12554;SDS011;6343;50.868;4.700;2022-12-29T10:48:19;7.37;;;2.10;;
12554;SDS011;6343;50.868;4.700;2022-12-29T10:50:37;9.53;;;2.20;;
12554;SDS011;6343;50.868;4.700;2022-12-29T10:53:07;9.30;;;1.70;;
12554;SDS011;6343;50.868;4.700;2022-12-29T10:55:38;10.27;;;2.17;;
12554;SDS011;6343;50.868;4.700;2022-12-29T10:58:09;8.30;;;2.17;;
12554;SDS011;6343;50.868;4.700;2022-12-29T11:00:37;9.70;;;2.07;;
12554;SDS011;6343;50.868;4.700;2022-12-29T11:08:22;6.40;;;2.20;;
12554;SDS011;6343;50.868;4.700;2022-12-29T11:11:01;6.87;;;1.87;;
12554;SDS011;6343;50.868;4.700;2022-12-29T11:13:29;9.97;;;2.33;;
12554;SDS011;6343;50.868;4.700;2022-12-29T11:15:55;12.03;;;2.03;;
12554;SDS011;6343;50.868;4.700;2022-12-29T11:18:25;10.70;;;1.83;;
12554;SDS011;6343;50.868;4.700;2022-12-29T11:20:55;7.47;;;2.33;;
12554;SDS011;6343;50.868;4.700;2022-12-29T11:28:38;10.53;;;2.00;;
12554;SDS011;6343;50.868;4.700;2022-12-29T11:31:06;9.20;;;2.20;;
12554;SDS011;6343;50.868;4.700;2022-12-29T11:33:34;10.87;;;2.20;;
12554;SDS011;6343;50.868;4.700;2022-12-29T11:36:08;11.03;;;2.37;;
12554;SDS011;6343;50.868;4.700;2022-12-29T11:38:37;9.80;;;1.87;;
12554;SDS011;6343;50.868;4.700;2022-12-29T11:41:05;12.77;;;2.43;;
12554;SDS011;6343;50.868;4.700;2022-12-29T11:45:58;9.50;;;2.10;;
12554;SDS011;6343;50.868;4.700;2022-12-29T11:48:25;10.13;;;1.90;;
12554;SDS011;6343;50.868;4.700;2022-12-29T11:50:55;10.20;;;2.03;;
12554;SDS011;6343;50.868;4.700;2022-12-29T11:53:39;11.27;;;2.10;;
12554;SDS011;6343;50.868;4.700;2022-12-29T11:56:08;10.20;;;2.27;;
12554;SDS011;6343;50.868;4.700;2022-12-29T11:58:36;11.67;;;2.33;;
12554;SDS011;6343;50.868;4.700;2022-12-29T12:01:05;9.30;;;2.20;;
12554;SDS011;6343;50.868;4.700;2022-12-29T12:03:32;6.10;;;1.70;;
12554;SDS011;6343;50.868;4.700;2022-12-29T12:06:01;8.97;;;2.13;;
12554;SDS011;6343;50.868;4.700;2022-12-29T12:08:33;10.03;;;2.10;;
12554;SDS011;6343;50.868;4.700;2022-12-29T12:11:11;8.80;;;1.87;;
12554;SDS011;6343;50.868;4.700;2022-12-29T12:13:49;10.30;;;2.00;;
12554;SDS011;6343;50.868;4.700;2022-12-29T12:16:18;6.00;;;2.77;;
12554;SDS011;6343;50.868;4.700;2022-12-29T12:18:51;5.70;;;1.63;;
12554;SDS011;6343;50.868;4.700;2022-12-29T12:21:22;6.10;;;1.13;;
12554;SDS011;6343;50.868;4.700;2022-12-29T12:23:57;8.27;;;1.97;;
12554;SDS011;6343;50.868;4.700;2022-12-29T12:27:12;8.10;;;2.10;;
12554;SDS011;6343;50.868;4.700;2022-12-29T12:29:12;11.10;;;2.30;;
12554;SDS011;6343;50.868;4.700;2022-12-29T12:31:41;6.23;;;1.80;;
12554;SDS011;6343;50.868;4.700;2022-12-29T12:34:12;9.20;;;1.87;;
12554;SDS011;6343;50.868;4.700;2022-12-29T12:36:49;7.60;;;1.70;;
12554;SDS011;6343;50.868;4.700;2022-12-29T12:47:29;7.30;;;2.03;;
12554;SDS011;6343;50.868;4.700;2022-12-29T12:52:29;12.00;;;1.80;;
12554;SDS011;6343;50.868;4.700;2022-12-29T12:57:42;6.30;;;2.10;;
12554;SDS011;6343;50.868;4.700;2022-12-29T13:00:12;7.83;;;2.47;;
12554;SDS011;6343;50.868;4.700;2022-12-29T13:20:58;6.77;;;1.87;;
12554;SDS011;6343;50.868;4.700;2022-12-29T13:28:33;8.33;;;1.90;;
12554;SDS011;6343;50.868;4.700;2022-12-29T13:36:14;8.90;;;2.07;;
12554;SDS011;6343;50.868;4.700;2022-12-29T13:41:13;8.13;;;1.90;;
12554;SDS011;6343;50.868;4.700;2022-12-29T13:43:40;9.17;;;2.43;;
12554;SDS011;6343;50.868;4.700;2022-12-29T13:46:15;9.67;;;1.80;;
12554;SDS011;6343;50.868;4.700;2022-12-29T13:48:44;5.67;;;1.80;;
12554;SDS011;6343;50.868;4.700;2022-12-29T13:51:12;7.90;;;2.63;;
12554;SDS011;6343;50.868;4.700;2022-12-29T13:56:25;7.47;;;2.13;;
12554;SDS011;6343;50.868;4.700;2022-12-29T13:59:11;9.30;;;2.30;;
12554;SDS011;6343;50.868;4.700;2022-12-29T14:04:13;7.50;;;2.20;;
12554;SDS011;6343;50.868;4.700;2022-12-29T14:06:40;10.17;;;2.37;;
12554;SDS011;6343;50.868;4.700;2022-12-29T14:11:52;8.43;;;2.00;;
12554;SDS011;6343;50.868;4.700;2022-12-29T14:14:19;6.50;;;2.07;;
12554;SDS011;6343;50.868;4.700;2022-12-29T14:16:47;13.27;;;2.73;;
12554;SDS011;6343;50.868;4.700;2022-12-29T14:19:20;14.90;;;2.50;;
12554;SDS011;6343;50.868;4.700;2022-12-29T14:21:54;10.57;;;2.73;;
12554;SDS011;6343;50.868;4.700;2022-12-29T14:24:35;5.80;;;2.20;;
12554;SDS011;6343;50.868;4.700;2022-12-29T14:33:11;10.77;;;2.10;;
12554;SDS011;6343;50.868;4.700;2022-12-29T14:37:46;9.20;;;2.13;;
12554;SDS011;6343;50.868;4.700;2022-12-29T14:40:25;7.93;;;2.30;;
12554;SDS011;6343;50.868;4.700;2022-12-29T14:42:52;8.03;;;2.07;;
12554;SDS011;6343;50.868;4.700;2022-12-29T14:47:46;11.87;;;3.07;;
12554;SDS011;6343;50.868;4.700;2022-12-29T14:52:52;9.47;;;2.50;;
12554;SDS011;6343;50.868;4.700;2022-12-29T14:59:22;9.37;;;1.93;;
12554;SDS011;6343;50.868;4.700;2022-12-29T15:01:50;9.43;;;2.40;;
12554;SDS011;6343;50.868;4.700;2022-12-29T15:04:18;10.33;;;2.90;;
12554;SDS011;6343;50.868;4.700;2022-12-29T15:06:45;9.00;;;2.47;;
12554;SDS011;6343;50.868;4.700;2022-12-29T15:11:56;11.67;;;2.53;;
12554;SDS011;6343;50.868;4.700;2022-12-29T15:14:34;15.83;;;2.30;;
12554;SDS011;6343;50.868;4.700;2022-12-29T15:17:01;9.70;;;2.00;;
12554;SDS011;6343;50.868;4.700;2022-12-29T15:19:27;12.13;;;2.33;;
12554;SDS011;6343;50.868;4.700;2022-12-29T15:21:54;12.70;;;2.37;;
12554;SDS011;6343;50.868;4.700;2022-12-29T15:24:21;9.47;;;2.30;;
12554;SDS011;6343;50.868;4.700;2022-12-29T15:26:51;10.23;;;3.23;;
12554;SDS011;6343;50.868;4.700;2022-12-29T15:29:38;8.83;;;2.57;;
12554;SDS011;6343;50.868;4.700;2022-12-29T15:32:39;10.10;;;3.10;;
12554;SDS011;6343;50.868;4.700;2022-12-29T15:34:57;7.43;;;1.73;;
12554;SDS011;6343;50.868;4.700;2022-12-29T15:37:36;4.87;;;1.30;;
12554;SDS011;6343;50.868;4.700;2022-12-29T15:40:03;8.03;;;2.10;;
12554;SDS011;6343;50.868;4.700;2022-12-29T15:42:31;4.10;;;1.50;;
12554;SDS011;6343;50.868;4.700;2022-12-29T15:45:00;2.90;;;1.23;;
12554;SDS011;6343;50.868;4.700;2022-12-29T15:47:29;4.23;;;1.70;;
12554;SDS011;6343;50.868;4.700;2022-12-29T15:52:34;4.67;;;1.83;;
12554;SDS011;6343;50.868;4.700;2022-12-29T15:55:01;6.43;;;1.30;;
12554;SDS011;6343;50.868;4.700;2022-12-29T15:57:31;6.43;;;2.10;;
12554;SDS011;6343;50.868;4.700;2022-12-29T15:59:58;4.33;;;1.20;;
12554;SDS011;6343;50.868;4.700;2022-12-29T16:02:25;8.33;;;1.77;;
12554;SDS011;6343;50.868;4.700;2022-12-29T16:04:52;6.07;;;1.60;;
12554;SDS011;6343;50.868;4.700;2022-12-29T16:07:28;7.87;;;2.60;;
12554;SDS011;6343;50.868;4.700;2022-12-29T16:09:56;7.40;;;1.63;;
12554;SDS011;6343;50.868;4.700;2022-12-29T16:12:32;4.20;;;1.40;;
12554;SDS011;6343;50.868;4.700;2022-12-29T16:15:00;6.83;;;2.40;;
12554;SDS011;6343;50.868;4.700;2022-12-29T16:17:28;8.70;;;2.20;;
12554;SDS011;6343;50.868;4.700;2022-12-29T16:22:38;10.07;;;2.37;;
12554;SDS011;6343;50.868;4.700;2022-12-29T16:25:16;7.40;;;1.70;;
12554;SDS011;6343;50.868;4.700;2022-12-29T16:27:45;7.80;;;1.97;;
12554;SDS011;6343;50.868;4.700;2022-12-29T16:32:47;3.70;;;1.77;;
12554;SDS011;6343;50.868;4.700;2022-12-29T16:35:27;10.53;;;2.27;;
12554;SDS011;6343;50.868;4.700;2022-12-29T16:40:33;8.67;;;2.40;;
12554;SDS011;6343;50.868;4.700;2022-12-29T16:43:03;11.53;;;2.30;;
12554;SDS011;6343;50.868;4.700;2022-12-29T16:50:35;8.40;;;2.80;;
12554;SDS011;6343;50.868;4.700;2022-12-29T16:53:01;12.67;;;3.37;;
12554;SDS011;6343;50.868;4.700;2022-12-29T16:55:28;11.60;;;2.90;;
12554;SDS011;6343;50.868;4.700;2022-12-29T16:57:55;11.20;;;3.07;;
12554;SDS011;6343;50.868;4.700;2022-12-29T17:00:23;14.90;;;4.00;;
12554;SDS011;6343;50.868;4.700;2022-12-29T17:02:50;13.27;;;2.77;;
12554;SDS011;6343;50.868;4.700;2022-12-29T17:05:17;8.73;;;2.83;;
12554;SDS011;6343;50.868;4.700;2022-12-29T17:07:44;11.10;;;2.70;;
12554;SDS011;6343;50.868;4.700;2022-12-29T17:10:13;11.90;;;3.43;;
12554;SDS011;6343;50.868;4.700;2022-12-29T17:12:40;12.83;;;2.50;;
12554;SDS011;6343;50.868;4.700;2022-12-29T17:15:13;6.10;;;2.20;;
12554;SDS011;6343;50.868;4.700;2022-12-29T17:17:43;7.23;;;2.33;;
12554;SDS011;6343;50.868;4.700;2022-12-29T17:20:19;11.23;;;2.53;;
12554;SDS011;6343;50.868;4.700;2022-12-29T17:22:46;8.37;;;2.40;;
12554;SDS011;6343;50.868;4.700;2022-12-29T17:25:17;11.70;;;2.90;;
12554;SDS011;6343;50.868;4.700;2022-12-29T17:27:44;13.93;;;2.63;;
12554;SDS011;6343;50.868;4.700;2022-12-29T17:30:13;10.87;;;3.00;;
12554;SDS011;6343;50.868;4.700;2022-12-29T17:32:40;9.70;;;2.57;;
12554;SDS011;6343;50.868;4.700;2022-12-29T17:35:13;14.37;;;2.67;;
12554;SDS011;6343;50.868;4.700;2022-12-29T17:37:40;10.73;;;2.60;;
12554;SDS011;6343;50.868;4.700;2022-12-29T17:40:07;11.23;;;2.40;;
12554;SDS011;6343;50.868;4.700;2022-12-29T17:42:34;12.27;;;2.87;;
12554;SDS011;6343;50.868;4.700;2022-12-29T17:45:02;8.80;;;2.57;;
12554;SDS011;6343;50.868;4.700;2022-12-29T17:47:28;12.60;;;2.30;;
12554;SDS011;6343;50.868;4.700;2022-12-29T17:49:55;10.90;;;2.40;;
12554;SDS011;6343;50.868;4.700;2022-12-29T17:52:21;8.83;;;2.40;;